createdAt,value
2023-02-08T00:00:12.308Z,-1.90
2023-02-08T00:01:17.507Z,-1.90
2023-02-08T00:02:18.863Z,-1.80
2023-02-08T00:03:20.663Z,-1.80
2023-02-08T00:04:22.037Z,-1.80
2023-02-08T00:05:23.762Z,-1.90
2023-02-08T00:06:25.120Z,-1.90
2023-02-08T00:07:26.612Z,-2.00
2023-02-08T00:08:28.595Z,-2.00
2023-02-08T00:09:30.292Z,-2.10
2023-02-08T00:10:31.982Z,-2.10
2023-02-08T00:11:33.689Z,-2.10
2023-02-08T00:12:35.390Z,-2.10
2023-02-08T00:13:41.555Z,-2.10
2023-02-08T00:14:43.661Z,-2.00
2023-02-08T00:15:46.776Z,-2.00
2023-02-08T00:16:48.325Z,-2.00
2023-02-08T00:17:49.986Z,-2.00
2023-02-08T00:18:51.673Z,-2.00
2023-02-08T00:19:53.531Z,-2.00
2023-02-08T00:20:57.196Z,-2.00
2023-02-08T00:21:58.595Z,-2.00
2023-02-08T00:23:00.030Z,-1.90
2023-02-08T00:24:01.499Z,-1.90
2023-02-08T00:25:02.935Z,-2.00
2023-02-08T00:26:04.905Z,-2.00
2023-02-08T00:27:06.473Z,-2.00
2023-02-08T00:28:12.590Z,-1.90
2023-02-08T00:29:14.005Z,-2.00
2023-02-08T00:30:15.549Z,-2.00
2023-02-08T00:31:17.120Z,-2.00
2023-02-08T00:32:18.818Z,-2.10
2023-02-08T00:33:20.250Z,-2.00
2023-02-08T00:34:21.605Z,-2.00
2023-02-08T00:35:23.002Z,-2.00
2023-02-08T00:36:24.475Z,-2.00
2023-02-08T00:37:25.911Z,-2.10
2023-02-08T00:38:27.881Z,-2.10
2023-02-08T00:39:29.761Z,-2.00
2023-02-08T00:40:31.386Z,-2.00
2023-02-08T00:41:32.813Z,-2.00
2023-02-08T00:42:34.286Z,-2.10
2023-02-08T00:43:35.823Z,-2.00
2023-02-08T00:44:37.511Z,-2.10
2023-02-08T00:45:39.004Z,-2.10
2023-02-08T00:46:40.441Z,-2.10
2023-02-08T00:47:41.971Z,-2.00
2023-02-08T00:48:43.474Z,-2.10
2023-02-08T00:49:44.937Z,-2.10
2023-02-08T00:51:02.173Z,-2.10
2023-02-08T00:52:03.943Z,-2.00
2023-02-08T00:53:05.626Z,-2.00
2023-02-08T00:54:07.168Z,-2.10
2023-02-08T00:55:09.449Z,-2.10
2023-02-08T00:56:12.690Z,-2.10
2023-02-08T00:57:14.796Z,-2.10
2023-02-08T00:58:16.426Z,-2.10
2023-02-08T00:59:17.880Z,-2.10
2023-02-08T01:00:19.970Z,-2.10
2023-02-08T01:01:21.598Z,-2.20
2023-02-08T01:02:22.990Z,-2.20
2023-02-08T01:03:26.519Z,-2.20
2023-02-08T01:04:28.110Z,-2.20
2023-02-08T01:05:29.479Z,-2.30
2023-02-08T01:06:31.861Z,-2.30
2023-02-08T01:07:33.244Z,-2.20
2023-02-08T01:08:37.327Z,-2.30
2023-02-08T01:09:38.929Z,-2.30
2023-02-08T01:10:40.859Z,-2.20
2023-02-08T01:11:42.971Z,-2.10
2023-02-08T01:12:44.561Z,-2.10
2023-02-08T01:13:46.133Z,-2.10
2023-02-08T01:14:47.686Z,-2.00
2023-02-08T01:15:49.109Z,-2.10
2023-02-08T01:16:50.668Z,-2.20
2023-02-08T01:17:55.794Z,-2.20
2023-02-08T01:18:58.462Z,-2.10
2023-02-08T01:19:59.912Z,-2.20
2023-02-08T01:21:10.220Z,-2.20
2023-02-08T01:22:11.934Z,-2.10
2023-02-08T01:23:13.417Z,-2.10
2023-02-08T01:24:15.663Z,-2.10
2023-02-08T01:25:17.437Z,-2.10
2023-02-08T01:26:20.555Z,-2.10
2023-02-08T01:27:22.060Z,-2.20
2023-02-08T01:28:23.534Z,-2.20
2023-02-08T01:29:25.968Z,-2.20
2023-02-08T01:30:27.709Z,-2.20
2023-02-08T01:31:32.895Z,-2.20
2023-02-08T01:32:34.881Z,-2.10
2023-02-08T01:33:37.095Z,-2.10
2023-02-08T01:34:38.601Z,-2.10
2023-02-08T01:35:40.073Z,-2.10
2023-02-08T01:36:42.438Z,-2.10
2023-02-08T01:37:44.048Z,-2.20
2023-02-08T01:38:46.036Z,-2.10
2023-02-08T01:39:47.468Z,-2.10
2023-02-08T01:40:48.863Z,-2.10
2023-02-08T01:41:50.558Z,-2.20
2023-02-08T01:42:51.913Z,-2.20
2023-02-08T01:44:07.507Z,-2.30
2023-02-08T01:45:21.166Z,-2.30
2023-02-08T01:46:22.967Z,-2.30
2023-02-08T01:47:25.008Z,-2.40
2023-02-08T01:48:31.836Z,-2.40
2023-02-08T01:49:36.839Z,-2.40
2023-02-08T01:50:46.579Z,-2.40
2023-02-08T01:51:57.434Z,-2.50
2023-02-08T01:52:59.497Z,-2.50
2023-02-08T01:54:05.389Z,-2.40
2023-02-08T01:55:12.349Z,-2.50
2023-02-08T01:56:20.812Z,-2.50
2023-02-08T01:57:23.286Z,-2.50
2023-02-08T01:58:28.299Z,-2.40
2023-02-08T01:59:38.575Z,-2.40
2023-02-08T02:00:40.302Z,-2.50
2023-02-08T02:01:43.452Z,-2.40
2023-02-08T02:02:47.841Z,-2.40
2023-02-08T02:03:49.495Z,-2.50
2023-02-08T02:04:52.127Z,-2.40
2023-02-08T02:06:04.059Z,-2.40
2023-02-08T02:07:06.402Z,-2.30
2023-02-08T02:08:08.528Z,-2.40
2023-02-08T02:09:26.304Z,-2.40
2023-02-08T02:10:32.329Z,-2.40
2023-02-08T02:11:33.806Z,-2.40
2023-02-08T02:12:37.615Z,-2.50
2023-02-08T02:13:40.303Z,-2.50
2023-02-08T02:14:42.661Z,-2.50
2023-02-08T02:15:45.654Z,-2.50
2023-02-08T02:16:47.211Z,-2.50
2023-02-08T02:17:48.851Z,-2.60
2023-02-08T02:18:50.563Z,-2.60
2023-02-08T02:19:54.975Z,-2.50
2023-02-08T02:21:27.373Z,-2.60
2023-02-08T02:22:31.748Z,-2.60
2023-02-08T02:23:52.137Z,-2.60
2023-02-08T02:25:17.961Z,-2.60
2023-02-08T02:26:56.472Z,-2.70
2023-02-08T02:28:16.395Z,-2.70
2023-02-08T02:30:12.796Z,-2.70
2023-02-08T02:31:33.856Z,-2.70
2023-02-08T02:33:13.817Z,-2.80
2023-02-08T02:34:46.383Z,-2.90
2023-02-08T02:36:32.704Z,-2.70
2023-02-08T02:37:53.246Z,-2.60
2023-02-08T02:39:11.334Z,-2.80
2023-02-08T02:40:23.398Z,-2.80
2023-02-08T02:42:13.185Z,-2.80
2023-02-08T02:43:41.985Z,-2.80
2023-02-08T02:45:05.474Z,-2.70
2023-02-08T02:46:21.927Z,-2.70
2023-02-08T02:47:39.012Z,-2.80
2023-02-08T02:48:59.333Z,-2.80
2023-02-08T02:50:14.403Z,-2.80
2023-02-08T02:51:27.345Z,-2.70
2023-02-08T02:52:48.211Z,-2.80
2023-02-08T02:54:00.997Z,-2.70
2023-02-08T02:55:08.630Z,-2.80
2023-02-08T02:56:38.291Z,-2.90
2023-02-08T02:57:42.727Z,-2.90
2023-02-08T02:58:45.647Z,-2.90
2023-02-08T02:59:47.576Z,-3.00
2023-02-08T03:00:56.735Z,-2.90
2023-02-08T03:01:58.627Z,-3.00
2023-02-08T03:03:00.068Z,-3.00
2023-02-08T03:04:12.516Z,-3.00
2023-02-08T03:05:14.036Z,-3.00
2023-02-08T03:06:28.066Z,-3.00
2023-02-08T03:07:41.122Z,-3.10
2023-02-08T03:09:00.606Z,-3.00
2023-02-08T03:10:21.511Z,-2.90
2023-02-08T03:11:25.344Z,-2.90
2023-02-08T03:12:43.161Z,-2.80
2023-02-08T03:13:47.915Z,-2.80
2023-02-08T03:15:42.457Z,-2.90
2023-02-08T03:16:58.914Z,-3.10
2023-02-08T03:18:28.194Z,-3.00
2023-02-08T03:19:49.325Z,-3.10
2023-02-08T03:21:15.260Z,-3.10
2023-02-08T03:22:26.451Z,-3.10
2023-02-08T03:23:36.249Z,-3.10
2023-02-08T03:25:03.223Z,-3.10
2023-02-08T03:26:23.151Z,-3.10
2023-02-08T03:27:36.187Z,-3.20
2023-02-08T03:28:40.801Z,-3.20
2023-02-08T03:29:57.587Z,-3.10
2023-02-08T03:31:11.906Z,-3.20
2023-02-08T03:32:38.272Z,-3.20
2023-02-08T03:33:52.654Z,-3.20
2023-02-08T03:35:20.552Z,-3.20
2023-02-08T03:36:38.261Z,-3.20
2023-02-08T03:37:59.442Z,-3.30
2023-02-08T03:39:05.330Z,-3.30
2023-02-08T03:40:16.724Z,-3.30
2023-02-08T03:41:26.902Z,-3.40
2023-02-08T03:42:30.741Z,-3.30
2023-02-08T03:43:40.187Z,-3.40
2023-02-08T03:45:16.764Z,-3.40
2023-02-08T03:46:38.424Z,-3.40
2023-02-08T03:47:42.682Z,-3.50
2023-02-08T03:48:51.786Z,-3.60
2023-02-08T03:49:56.925Z,-3.50
2023-02-08T03:51:00.311Z,-3.40
2023-02-08T03:52:05.314Z,-3.50
2023-02-08T03:53:08.768Z,-3.50
2023-02-08T03:54:20.906Z,-3.50
2023-02-08T03:55:27.544Z,-3.50
2023-02-08T03:56:41.612Z,-3.60
2023-02-08T03:57:58.616Z,-3.60
2023-02-08T03:59:05.174Z,-3.60
2023-02-08T04:00:10.326Z,-3.50
2023-02-08T04:01:23.273Z,-3.60
2023-02-08T04:02:29.042Z,-3.60
2023-02-08T04:03:32.355Z,-3.50
2023-02-08T04:04:37.953Z,-3.60
2023-02-08T04:05:39.848Z,-3.60
2023-02-08T04:06:41.444Z,-3.50
2023-02-08T04:07:43.147Z,-3.60
2023-02-08T04:08:44.648Z,-3.60
2023-02-08T04:09:46.349Z,-3.60
2023-02-08T04:10:48.151Z,-3.50
2023-02-08T04:11:49.878Z,-3.60
2023-02-08T04:12:51.345Z,-3.60
2023-02-08T04:13:53.173Z,-3.60
2023-02-08T04:14:54.615Z,-3.60
2023-02-08T04:15:56.206Z,-3.60
2023-02-08T04:16:57.612Z,-3.70
2023-02-08T04:17:59.017Z,-3.60
2023-02-08T04:19:00.665Z,-3.70
2023-02-08T04:20:02.070Z,-3.80
2023-02-08T04:21:03.762Z,-3.70
2023-02-08T04:22:05.388Z,-3.80
2023-02-08T04:23:06.798Z,-3.70
2023-02-08T04:24:08.487Z,-3.70
2023-02-08T04:25:10.196Z,-3.80
2023-02-08T04:26:11.638Z,-3.70
2023-02-08T04:27:13.118Z,-3.80
2023-02-08T04:28:14.469Z,-3.80
2023-02-08T04:29:17.233Z,-3.70
2023-02-08T04:30:18.942Z,-3.70
2023-02-08T04:31:20.413Z,-3.80
2023-02-08T04:32:21.865Z,-3.80
2023-02-08T04:33:23.349Z,-3.70
2023-02-08T04:34:24.857Z,-3.70
2023-02-08T04:35:26.534Z,-3.80
2023-02-08T04:36:27.938Z,-3.70
2023-02-08T04:37:29.281Z,-3.70
2023-02-08T04:38:30.904Z,-3.60
2023-02-08T04:39:32.380Z,-3.70
2023-02-08T04:40:33.788Z,-3.70
2023-02-08T04:41:35.264Z,-3.70
2023-02-08T04:42:36.859Z,-3.60
2023-02-08T04:43:38.533Z,-3.70
2023-02-08T04:44:39.938Z,-3.70
2023-02-08T04:45:41.313Z,-3.70
2023-02-08T04:46:42.800Z,-3.70
2023-02-08T04:47:44.248Z,-3.60
2023-02-08T04:48:45.860Z,-3.60
2023-02-08T04:49:47.302Z,-3.70
2023-02-08T04:50:48.672Z,-3.80
2023-02-08T04:51:50.079Z,-3.80
2023-02-08T04:52:51.507Z,-3.90
2023-02-08T04:53:53.098Z,-3.90
2023-02-08T04:54:55.077Z,-3.80
2023-02-08T04:55:56.498Z,-3.70
2023-02-08T04:56:57.987Z,-3.70
2023-02-08T04:57:59.605Z,-3.80
2023-02-08T04:59:01.245Z,-3.70
2023-02-08T05:00:03.460Z,-3.80
2023-02-08T05:01:10.731Z,-3.80
2023-02-08T05:02:12.126Z,-3.70
2023-02-08T05:03:16.116Z,-3.70
2023-02-08T05:04:17.507Z,-3.70
2023-02-08T05:05:19.032Z,-3.80
2023-02-08T05:06:20.548Z,-3.80
2023-02-08T05:07:22.015Z,-3.80
2023-02-08T05:08:23.365Z,-3.90
2023-02-08T05:09:24.822Z,-3.90
2023-02-08T05:10:26.692Z,-3.90
2023-02-08T05:11:28.209Z,-3.90
2023-02-08T05:12:29.602Z,-3.90
2023-02-08T05:13:31.533Z,-3.80
2023-02-08T05:14:33.053Z,-3.80
2023-02-08T05:15:34.974Z,-3.80
2023-02-08T05:16:36.553Z,-3.80
2023-02-08T05:17:38.909Z,-3.80
2023-02-08T05:18:40.322Z,-3.70
2023-02-08T05:19:41.713Z,-3.80
2023-02-08T05:20:43.234Z,-3.80
2023-02-08T05:21:44.656Z,-3.80
2023-02-08T05:22:46.086Z,-3.80
2023-02-08T05:23:47.467Z,-3.80
2023-02-08T05:24:48.965Z,-3.80
2023-02-08T05:25:50.440Z,-3.80
2023-02-08T05:26:52.102Z,-3.70
2023-02-08T05:27:53.482Z,-3.80
2023-02-08T05:28:54.925Z,-3.80
2023-02-08T05:29:58.142Z,-3.80
2023-02-08T05:31:00.705Z,-3.70
2023-02-08T05:32:02.181Z,-3.80
2023-02-08T05:33:03.611Z,-3.80
2023-02-08T05:34:05.455Z,-3.70
2023-02-08T05:35:07.257Z,-3.60
2023-02-08T05:36:08.937Z,-3.70
2023-02-08T05:37:10.478Z,-3.70
2023-02-08T05:38:12.238Z,-3.70
2023-02-08T05:39:13.644Z,-3.50
2023-02-08T05:40:15.117Z,-3.50
2023-02-08T05:41:17.227Z,-3.60
2023-02-08T05:42:18.736Z,-3.70
2023-02-08T05:43:20.472Z,-3.70
2023-02-08T05:44:21.997Z,-3.80
2023-02-08T05:45:23.574Z,-3.80
2023-02-08T05:46:25.154Z,-3.80
2023-02-08T05:47:26.583Z,-3.80
2023-02-08T05:48:28.108Z,-3.80
2023-02-08T05:49:29.990Z,-3.80
2023-02-08T05:50:32.120Z,-3.80
2023-02-08T05:51:33.631Z,-3.80
2023-02-08T05:52:34.985Z,-3.80
2023-02-08T05:53:37.671Z,-3.80
2023-02-08T05:54:39.098Z,-3.80
2023-02-08T05:55:43.712Z,-3.80
2023-02-08T05:56:45.154Z,-3.80
2023-02-08T05:57:46.556Z,-3.80
2023-02-08T05:58:48.493Z,-3.80
2023-02-08T05:59:50.297Z,-3.80
2023-02-08T06:00:51.688Z,-3.80
2023-02-08T06:01:53.100Z,-3.80
2023-02-08T06:02:54.612Z,-3.70
2023-02-08T06:03:56.156Z,-3.70
2023-02-08T06:04:57.676Z,-3.70
2023-02-08T06:06:01.684Z,-3.70
2023-02-08T06:07:03.473Z,-3.80
2023-02-08T06:08:05.391Z,-3.80
2023-02-08T06:09:06.738Z,-3.80
2023-02-08T06:10:11.297Z,-3.70
2023-02-08T06:11:13.274Z,-3.60
2023-02-08T06:12:14.738Z,-3.70
2023-02-08T06:13:16.171Z,-3.70
2023-02-08T06:14:17.606Z,-3.70
2023-02-08T06:15:19.078Z,-3.80
2023-02-08T06:16:20.693Z,-3.70
2023-02-08T06:17:22.172Z,-3.70
2023-02-08T06:18:24.283Z,-3.80
2023-02-08T06:19:25.823Z,-3.70
2023-02-08T06:20:27.453Z,-3.70
2023-02-08T06:21:28.850Z,-3.70
2023-02-08T06:22:30.319Z,-3.80
2023-02-08T06:23:31.841Z,-3.80
2023-02-08T06:24:33.332Z,-3.80
2023-02-08T06:25:34.980Z,-3.80
2023-02-08T06:26:37.118Z,-3.90
2023-02-08T06:27:38.691Z,-3.90
2023-02-08T06:28:40.378Z,-3.90
2023-02-08T06:29:41.771Z,-3.90
2023-02-08T06:30:43.688Z,-3.90
2023-02-08T06:31:45.292Z,-3.80
2023-02-08T06:32:46.935Z,-3.70
2023-02-08T06:33:48.373Z,-3.70
2023-02-08T06:34:51.312Z,-3.70
2023-02-08T06:35:53.721Z,-3.80
2023-02-08T06:36:55.159Z,-3.90
2023-02-08T06:37:56.562Z,-3.80
2023-02-08T06:38:58.022Z,-3.70
2023-02-08T06:40:01.905Z,-3.70
2023-02-08T06:41:03.413Z,-3.70
2023-02-08T06:42:05.176Z,-3.80
2023-02-08T06:43:06.837Z,-3.80
2023-02-08T06:44:08.324Z,-3.80
2023-02-08T06:45:12.056Z,-3.80
2023-02-08T06:46:15.042Z,-3.80
2023-02-08T06:47:16.604Z,-3.90
2023-02-08T06:48:17.990Z,-3.90
2023-02-08T06:49:19.382Z,-3.80
2023-02-08T06:50:23.192Z,-3.90
2023-02-08T06:51:26.135Z,-4.00
2023-02-08T06:52:27.631Z,-4.00
2023-02-08T06:53:29.569Z,-4.10
2023-02-08T06:54:31.031Z,-4.10
2023-02-08T06:55:32.489Z,-4.00
2023-02-08T06:56:34.205Z,-4.00
2023-02-08T06:57:35.764Z,-4.00
2023-02-08T06:58:38.210Z,-4.00
2023-02-08T06:59:40.324Z,-4.10
2023-02-08T07:00:42.207Z,-4.10
2023-02-08T07:01:43.832Z,-4.00
2023-02-08T07:02:47.210Z,-4.00
2023-02-08T07:03:48.822Z,-3.90
2023-02-08T07:04:50.444Z,-3.90
2023-02-08T07:06:04.164Z,-3.80
2023-02-08T07:07:06.658Z,-3.90
2023-02-08T07:08:08.418Z,-4.00
2023-02-08T07:09:10.174Z,-4.00
2023-02-08T07:10:11.592Z,-3.90
2023-02-08T07:11:16.057Z,-4.00
2023-02-08T07:12:17.500Z,-4.00
2023-02-08T07:13:19.061Z,-4.10
2023-02-08T07:14:20.631Z,-4.00
2023-02-08T07:15:22.533Z,-4.10
2023-02-08T07:16:24.080Z,-4.10
2023-02-08T07:17:25.752Z,-4.10
2023-02-08T07:18:27.279Z,-3.90
2023-02-08T07:19:29.539Z,-4.00
2023-02-08T07:20:30.921Z,-4.10
2023-02-08T07:21:32.656Z,-4.10
2023-02-08T07:22:34.152Z,-4.10
2023-02-08T07:23:35.598Z,-4.00
2023-02-08T07:24:39.751Z,-4.00
2023-02-08T07:25:41.429Z,-4.00
2023-02-08T07:26:42.903Z,-4.00
2023-02-08T07:27:44.520Z,-4.00
2023-02-08T07:28:46.125Z,-4.10
2023-02-08T07:29:47.475Z,-4.10
2023-02-08T07:30:48.859Z,-4.10
2023-02-08T07:31:50.351Z,-4.00
2023-02-08T07:32:51.918Z,-3.90
2023-02-08T07:33:53.316Z,-3.80
2023-02-08T07:34:54.755Z,-3.80
2023-02-08T07:35:56.216Z,-3.80
2023-02-08T07:36:58.186Z,-3.80
2023-02-08T07:38:00.017Z,-3.80
2023-02-08T07:39:02.560Z,-3.80
2023-02-08T07:40:04.232Z,-3.70
2023-02-08T07:41:12.563Z,-3.80
2023-02-08T07:42:14.144Z,-3.80
2023-02-08T07:43:27.422Z,-3.80
2023-02-08T07:44:33.631Z,-3.90
2023-02-08T07:45:37.885Z,-3.90
2023-02-08T07:46:40.499Z,-4.00
2023-02-08T07:47:41.917Z,-4.00
2023-02-08T07:48:43.811Z,-4.00
2023-02-08T07:49:45.227Z,-4.00
2023-02-08T07:50:46.776Z,-4.00
2023-02-08T07:51:48.226Z,-4.00
2023-02-08T07:52:49.658Z,-3.90
2023-02-08T07:53:51.234Z,-3.90
2023-02-08T07:54:52.880Z,-3.90
2023-02-08T07:55:54.250Z,-3.90
2023-02-08T07:56:56.528Z,-3.80
2023-02-08T07:57:59.139Z,-3.80
2023-02-08T07:59:00.813Z,-3.80
2023-02-08T08:00:02.546Z,-3.80
2023-02-08T08:01:22.046Z,-3.80
2023-02-08T08:02:24.242Z,-3.80
2023-02-08T08:03:25.902Z,-3.90
2023-02-08T08:04:27.627Z,-3.90
2023-02-08T08:05:29.035Z,-3.80
2023-02-08T08:06:30.568Z,-3.70
2023-02-08T08:07:32.176Z,-3.70
2023-02-08T08:08:33.842Z,-3.70
2023-02-08T08:09:35.599Z,-3.60
2023-02-08T08:10:37.497Z,-3.60
2023-02-08T08:11:38.931Z,-3.60
2023-02-08T08:12:40.391Z,-3.40
2023-02-08T08:13:42.311Z,-3.40
2023-02-08T08:14:43.956Z,-3.30
2023-02-08T08:15:46.687Z,-3.40
2023-02-08T08:16:48.076Z,-3.40
2023-02-08T08:17:49.517Z,-3.40
2023-02-08T08:18:51.007Z,-3.40
2023-02-08T08:19:52.435Z,-3.30
2023-02-08T08:20:53.911Z,-3.30
2023-02-08T08:21:55.312Z,-3.30
2023-02-08T08:22:57.021Z,-3.30
2023-02-08T08:23:58.428Z,-3.20
2023-02-08T08:25:00.074Z,-3.10
2023-02-08T08:26:06.307Z,-3.10
2023-02-08T08:27:08.139Z,-3.10
2023-02-08T08:28:09.690Z,-3.00
2023-02-08T08:29:11.332Z,-3.00
2023-02-08T08:30:16.038Z,-3.00
2023-02-08T08:31:20.313Z,-2.90
2023-02-08T08:32:21.816Z,-2.90
2023-02-08T08:33:23.219Z,-2.90
2023-02-08T08:34:29.799Z,-2.80
2023-02-08T08:35:31.262Z,-2.80
2023-02-08T08:36:32.779Z,-2.80
2023-02-08T08:37:35.344Z,-2.70
2023-02-08T08:38:38.687Z,-2.60
2023-02-08T08:39:40.068Z,-2.60
2023-02-08T08:40:42.244Z,-2.60
2023-02-08T08:41:43.754Z,-2.60
2023-02-08T08:42:45.228Z,-2.50
2023-02-08T08:43:46.659Z,-2.50
2023-02-08T08:44:48.174Z,-2.50
2023-02-08T08:45:51.602Z,-2.50
2023-02-08T08:46:58.023Z,-2.50
2023-02-08T08:48:01.606Z,-2.50
2023-02-08T08:49:04.270Z,-2.50
2023-02-08T08:50:06.020Z,-2.40
2023-02-08T08:51:07.791Z,-2.40
2023-02-08T08:52:10.940Z,-2.40
2023-02-08T08:53:13.410Z,-2.30
2023-02-08T08:54:15.012Z,-2.20
2023-02-08T08:55:16.504Z,-2.30
2023-02-08T08:56:17.872Z,-2.20
2023-02-08T08:57:19.330Z,-2.20
2023-02-08T08:58:20.924Z,-2.20
2023-02-08T08:59:22.572Z,-2.20
2023-02-08T09:00:24.052Z,-2.10
2023-02-08T09:01:25.485Z,-2.10
2023-02-08T09:02:26.997Z,-2.10
2023-02-08T09:03:29.257Z,-2.10
2023-02-08T09:04:31.168Z,-2.20
2023-02-08T09:05:32.685Z,-2.20
2023-02-08T09:06:35.008Z,-2.10
2023-02-08T09:07:36.390Z,-2.10
2023-02-08T09:08:38.467Z,-2.00
2023-02-08T09:09:41.082Z,-2.10
2023-02-08T09:10:43.033Z,-2.00
2023-02-08T09:11:44.672Z,-2.00
2023-02-08T09:12:46.046Z,-2.00
2023-02-08T09:13:47.599Z,-2.00
2023-02-08T09:14:49.152Z,-2.00
2023-02-08T09:15:50.792Z,-1.90
2023-02-08T09:16:52.778Z,-1.90
2023-02-08T09:17:54.183Z,-1.80
2023-02-08T09:18:55.616Z,-1.80
2023-02-08T09:19:57.015Z,-1.70
2023-02-08T09:20:58.424Z,-1.70
2023-02-08T09:22:00.626Z,-1.70
2023-02-08T09:23:02.217Z,-1.60
2023-02-08T09:24:04.574Z,-1.60
2023-02-08T09:25:07.438Z,-1.60
2023-02-08T09:26:11.730Z,-1.50
2023-02-08T09:27:13.240Z,-1.50
2023-02-08T09:28:14.780Z,-1.40
2023-02-08T09:29:16.241Z,-1.40
2023-02-08T09:30:17.673Z,-1.50
2023-02-08T09:31:27.254Z,-1.50
2023-02-08T09:32:34.442Z,-1.50
2023-02-08T09:33:35.908Z,-1.40
2023-02-08T09:34:37.490Z,-1.40
2023-02-08T09:35:38.888Z,-1.30
2023-02-08T09:36:41.268Z,-1.30
2023-02-08T09:37:42.705Z,-1.30
2023-02-08T09:38:45.457Z,-1.20
2023-02-08T09:39:47.096Z,-1.20
2023-02-08T09:41:05.469Z,-1.10
2023-02-08T09:42:15.474Z,-1.10
2023-02-08T09:43:43.992Z,-1.00
2023-02-08T09:45:30.968Z,-1.10
2023-02-08T09:46:38.505Z,-1.00
2023-02-08T09:48:04.006Z,-1.00
2023-02-08T09:49:14.595Z,-1.00
2023-02-08T09:50:40.193Z,-1.00
2023-02-08T09:52:02.188Z,-1.10
2023-02-08T09:53:20.349Z,-0.90
2023-02-08T09:54:43.363Z,-0.90
2023-02-08T09:55:49.430Z,-0.80
2023-02-08T09:56:52.654Z,-0.90
2023-02-08T09:57:57.647Z,-1.00
2023-02-08T09:59:01.959Z,-1.00
2023-02-08T10:00:12.180Z,-1.00
2023-02-08T10:01:21.534Z,-0.90
2023-02-08T10:02:31.003Z,-0.80
2023-02-08T10:03:42.560Z,-0.90
2023-02-08T10:04:55.922Z,-0.90
2023-02-08T10:05:57.735Z,-0.80
2023-02-08T10:06:59.112Z,-0.70
2023-02-08T10:08:01.732Z,-0.70
2023-02-08T10:09:07.213Z,-0.60
2023-02-08T10:10:16.987Z,-0.60
2023-02-08T10:11:53.534Z,-0.50
2023-02-08T10:13:41.062Z,-0.50
2023-02-08T10:14:57.715Z,-0.50
2023-02-08T10:16:16.533Z,-0.40
2023-02-08T10:17:23.933Z,-0.50
2023-02-08T10:18:45.164Z,-0.40
2023-02-08T10:19:55.908Z,-0.40
2023-02-08T10:21:18.562Z,-0.40
2023-02-08T10:22:50.409Z,-0.30
2023-02-08T10:24:22.012Z,-0.30
2023-02-08T10:25:26.159Z,-0.30
2023-02-08T10:26:47.181Z,-0.30
2023-02-08T10:28:16.454Z,-0.30
2023-02-08T10:29:44.467Z,-0.20
2023-02-08T10:31:07.625Z,-0.10
2023-02-08T10:32:27.579Z,0.00
2023-02-08T10:33:50.439Z,0.00
2023-02-08T10:35:02.223Z,0.00
2023-02-08T10:36:14.365Z,-0.10
2023-02-08T10:37:25.012Z,0.00
2023-02-08T10:38:45.899Z,0.00
2023-02-08T10:39:49.799Z,-0.10
2023-02-08T10:40:57.442Z,-0.10
2023-02-08T10:41:59.833Z,0.00
2023-02-08T10:43:01.211Z,0.10
2023-02-08T10:44:28.114Z,0.20
2023-02-08T10:46:01.682Z,0.20
2023-02-08T10:47:35.918Z,0.20
2023-02-08T10:48:37.619Z,0.30
2023-02-08T10:50:00.645Z,0.20
2023-02-08T10:51:02.485Z,0.30
2023-02-08T10:52:04.944Z,0.30
2023-02-08T10:53:10.226Z,0.40
2023-02-08T10:54:13.824Z,0.30
2023-02-08T10:55:18.639Z,0.40
2023-02-08T10:56:48.237Z,0.30
2023-02-08T10:57:54.077Z,0.40
2023-02-08T10:58:59.700Z,0.40
2023-02-08T11:00:31.927Z,0.40
2023-02-08T11:01:34.013Z,0.50
2023-02-08T11:02:40.848Z,0.60
2023-02-08T11:04:04.385Z,0.60
2023-02-08T11:05:08.044Z,0.70
2023-02-08T11:06:27.145Z,0.70
2023-02-08T11:07:29.558Z,0.80
2023-02-08T11:08:31.202Z,0.80
2023-02-08T11:09:32.831Z,0.80
2023-02-08T11:10:36.390Z,0.90
2023-02-08T11:11:41.172Z,0.70
2023-02-08T11:12:54.318Z,0.70
2023-02-08T11:14:13.491Z,0.80
2023-02-08T11:15:46.653Z,0.80
2023-02-08T11:16:56.875Z,0.80
2023-02-08T11:18:01.781Z,0.90
2023-02-08T11:19:07.766Z,0.80
2023-02-08T11:20:25.218Z,0.80
2023-02-08T11:21:33.295Z,0.80
2023-02-08T11:22:35.059Z,0.90
2023-02-08T11:23:39.976Z,0.90
2023-02-08T11:24:43.535Z,1.00
2023-02-08T11:25:45.392Z,1.00
2023-02-08T11:26:48.909Z,1.00
2023-02-08T11:27:50.377Z,1.10
2023-02-08T11:29:00.796Z,1.10
2023-02-08T11:30:14.328Z,1.20
2023-02-08T11:31:20.452Z,1.20
2023-02-08T11:32:21.953Z,1.20
2023-02-08T11:33:24.409Z,1.20
2023-02-08T11:34:32.811Z,1.20
2023-02-08T11:35:34.464Z,1.30
2023-02-08T11:36:42.921Z,1.10
2023-02-08T11:37:54.891Z,1.10
2023-02-08T11:38:58.001Z,1.20
2023-02-08T11:40:01.105Z,1.30
2023-02-08T11:41:05.642Z,1.30
2023-02-08T11:42:07.831Z,1.20
2023-02-08T11:43:28.374Z,1.30
2023-02-08T11:44:35.150Z,1.20
2023-02-08T11:45:37.553Z,1.30
2023-02-08T11:46:41.953Z,1.30
2023-02-08T11:47:48.152Z,1.20
2023-02-08T11:48:51.677Z,1.20
2023-02-08T11:49:58.136Z,1.20
2023-02-08T11:51:02.185Z,1.20
2023-02-08T11:52:06.263Z,1.20
2023-02-08T11:53:39.911Z,1.20
2023-02-08T11:54:42.192Z,1.20
2023-02-08T11:55:44.332Z,1.20
2023-02-08T11:57:03.799Z,1.20
2023-02-08T11:58:15.672Z,1.30
2023-02-08T11:59:23.997Z,1.40
2023-02-08T12:00:28.489Z,1.50
2023-02-08T12:01:33.829Z,1.50
2023-02-08T12:02:38.191Z,1.60
2023-02-08T12:03:41.501Z,1.60
2023-02-08T12:04:42.918Z,1.70
2023-02-08T12:05:52.670Z,1.80
2023-02-08T12:07:00.122Z,1.80
2023-02-08T12:08:13.858Z,1.90
2023-02-08T12:09:27.753Z,1.90
2023-02-08T12:10:45.355Z,1.90
2023-02-08T12:11:57.505Z,1.90
2023-02-08T12:13:17.266Z,2.00
2023-02-08T12:14:39.136Z,2.00
2023-02-08T12:15:58.343Z,2.00
2023-02-08T12:17:22.232Z,2.00
2023-02-08T12:19:06.506Z,2.00
2023-02-08T12:20:42.060Z,2.10
2023-02-08T12:21:49.919Z,2.00
2023-02-08T12:23:12.553Z,1.90
2023-02-08T12:24:25.990Z,1.90
2023-02-08T12:25:46.846Z,1.80
2023-02-08T12:27:09.512Z,1.80
2023-02-08T12:28:23.445Z,1.80
2023-02-08T12:29:49.845Z,2.00
2023-02-08T12:31:09.358Z,2.10
2023-02-08T12:32:23.864Z,2.20
2023-02-08T12:33:53.916Z,2.20
2023-02-08T12:35:24.145Z,2.20
2023-02-08T12:37:15.659Z,2.20
2023-02-08T12:39:10.405Z,2.30
2023-02-08T12:40:50.294Z,2.30
2023-02-08T12:42:04.240Z,2.20
2023-02-08T12:43:26.287Z,2.20
2023-02-08T12:44:46.201Z,2.20
2023-02-08T12:46:12.400Z,2.20
2023-02-08T12:47:32.977Z,2.10
2023-02-08T12:49:09.307Z,2.30
2023-02-08T12:50:37.719Z,2.30
2023-02-08T12:51:44.677Z,2.20
2023-02-08T12:52:51.640Z,2.20
2023-02-08T12:54:00.575Z,2.30
2023-02-08T12:55:05.713Z,2.40
2023-02-08T12:56:17.079Z,2.40
2023-02-08T12:57:22.247Z,2.50
2023-02-08T12:58:36.320Z,2.60
2023-02-08T12:59:48.342Z,2.70
2023-02-08T13:00:51.678Z,2.60
2023-02-08T13:02:00.002Z,2.60
2023-02-08T13:03:20.699Z,2.70
2023-02-08T13:04:30.856Z,2.70
2023-02-08T13:05:37.559Z,2.60
2023-02-08T13:06:42.100Z,2.60
2023-02-08T13:07:46.162Z,2.70
2023-02-08T13:09:03.433Z,2.80
2023-02-08T13:10:20.784Z,2.80
2023-02-08T13:11:47.594Z,2.90
2023-02-08T13:12:53.401Z,2.90
2023-02-08T13:14:12.123Z,3.00
2023-02-08T13:15:29.655Z,2.90
2023-02-08T13:16:41.321Z,2.90
2023-02-08T13:17:51.550Z,3.00
2023-02-08T13:18:57.910Z,3.10
2023-02-08T13:20:25.942Z,3.10
2023-02-08T13:21:32.738Z,3.10
2023-02-08T13:22:41.074Z,3.10
2023-02-08T13:23:52.798Z,3.10
2023-02-08T13:25:07.153Z,3.10
2023-02-08T13:26:15.856Z,3.10
2023-02-08T13:27:20.168Z,3.10
2023-02-08T13:28:24.029Z,3.10
2023-02-08T13:29:28.286Z,3.10
2023-02-08T13:30:32.346Z,3.10
2023-02-08T13:31:43.049Z,3.20
2023-02-08T13:32:47.226Z,3.30
2023-02-08T13:34:02.277Z,3.20
2023-02-08T13:35:15.530Z,3.30
2023-02-08T13:36:32.394Z,3.30
2023-02-08T13:37:36.094Z,3.40
2023-02-08T13:38:37.564Z,3.40
2023-02-08T13:39:43.276Z,3.50
2023-02-08T13:40:45.766Z,3.40
2023-02-08T13:41:56.476Z,3.50
2023-02-08T13:43:05.130Z,3.60
2023-02-08T13:44:20.607Z,3.60
2023-02-08T13:45:34.832Z,3.60
2023-02-08T13:46:48.271Z,3.70
2023-02-08T13:47:57.920Z,3.80
2023-02-08T13:49:02.356Z,3.80
2023-02-08T13:50:29.602Z,3.80
2023-02-08T13:51:51.221Z,3.90
2023-02-08T13:52:53.281Z,3.90
2023-02-08T13:53:57.690Z,4.00
2023-02-08T13:55:38.163Z,4.00
2023-02-08T13:56:50.405Z,4.10
2023-02-08T13:57:54.128Z,4.10
2023-02-08T13:59:01.310Z,4.20
2023-02-08T14:00:27.315Z,4.30
2023-02-08T14:01:31.886Z,4.40
2023-02-08T14:02:33.381Z,4.40
2023-02-08T14:03:35.832Z,4.50
2023-02-08T14:04:45.931Z,4.50
2023-02-08T14:05:58.750Z,4.50
2023-02-08T14:07:12.081Z,4.60
2023-02-08T14:08:23.701Z,4.60
2023-02-08T14:09:44.258Z,4.50
2023-02-08T14:10:59.803Z,4.40
2023-02-08T14:12:06.756Z,4.30
2023-02-08T14:13:26.947Z,4.20
2023-02-08T14:14:35.652Z,4.00
2023-02-08T14:15:39.906Z,3.90
2023-02-08T14:16:44.095Z,3.80
2023-02-08T14:17:51.525Z,3.70
2023-02-08T14:19:01.888Z,3.60
2023-02-08T14:20:06.903Z,3.50
2023-02-08T14:21:24.374Z,3.40
2023-02-08T14:22:31.158Z,3.30
2023-02-08T14:23:36.997Z,3.20
2023-02-08T14:24:48.102Z,3.10
2023-02-08T14:25:53.385Z,3.00
2023-02-08T14:27:21.817Z,3.10
2023-02-08T14:28:35.429Z,2.90
2023-02-08T14:29:37.318Z,2.90
2023-02-08T14:30:39.484Z,2.90
2023-02-08T14:31:43.871Z,2.80